createdAt,value
2016-12-17T00:00:31.463Z,0
2016-12-17T00:01:31.460Z,0
2016-12-17T00:02:31.779Z,0
2016-12-17T00:03:31.822Z,0
2016-12-17T00:04:31.843Z,0
2016-12-17T00:05:31.875Z,0
2016-12-17T00:06:31.291Z,0
2016-12-17T00:07:31.924Z,0
2016-12-17T00:08:31.973Z,0
2016-12-17T00:09:31.682Z,0
2016-12-17T00:10:32.014Z,0
2016-12-17T00:11:31.743Z,0
2016-12-17T00:12:31.772Z,0
2016-12-17T00:13:32.088Z,0
2016-12-17T00:14:31.830Z,0
2016-12-17T00:15:31.533Z,0
2016-12-17T00:16:32.471Z,0
2016-12-17T00:17:31.908Z,0
2016-12-17T00:18:31.916Z,0
2016-12-17T00:19:31.953Z,0
2016-12-17T00:20:31.682Z,0
2016-12-17T00:21:32.027Z,0
2016-12-17T00:22:31.735Z,0
2016-12-17T00:23:32.388Z,0
2016-12-17T00:24:31.789Z,0
2016-12-17T00:25:32.118Z,0
2016-12-17T00:26:32.147Z,0
2016-12-17T00:27:32.796Z,0
2016-12-17T00:28:32.196Z,0
2016-12-17T00:29:32.832Z,0
2016-12-17T00:30:32.245Z,0
2016-12-17T00:31:32.586Z,0
2016-12-17T00:32:32.320Z,0
2016-12-17T00:33:32.035Z,0
2016-12-17T00:34:32.373Z,0
2016-12-17T00:35:32.409Z,0
2016-12-17T00:36:32.428Z,0
2016-12-17T00:37:32.459Z,0
2016-12-17T00:38:32.795Z,0
2016-12-17T00:39:32.808Z,0
2016-12-17T00:40:32.837Z,0
2016-12-17T00:41:32.863Z,0
2016-12-17T00:42:32.594Z,0
2016-12-17T00:43:32.323Z,0
2016-12-17T00:44:32.644Z,0
2016-12-17T00:45:32.380Z,0
2016-12-17T00:46:32.394Z,0
2016-12-17T00:47:32.726Z,0
2016-12-17T00:48:32.447Z,0
2016-12-17T00:49:32.788Z,0
2016-12-17T00:50:33.133Z,0
2016-12-17T00:51:33.191Z,0
2016-12-17T00:52:33.479Z,0
2016-12-17T00:53:33.199Z,0
2016-12-17T00:54:33.227Z,0
2016-12-17T00:55:32.956Z,0
2016-12-17T00:56:33.582Z,0
2016-12-17T00:57:33.002Z,0
2016-12-17T00:58:33.026Z,0
2016-12-17T00:59:33.075Z,0
2016-12-17T01:00:33.096Z,0
2016-12-17T01:01:33.117Z,0
2016-12-17T01:02:33.437Z,0
2016-12-17T01:03:33.477Z,0
2016-12-17T01:04:33.195Z,0
2016-12-17T01:05:33.827Z,0
2016-12-17T01:06:33.288Z,0
2016-12-17T01:07:32.984Z,0
2016-12-17T01:08:33.305Z,0
2016-12-17T01:09:33.034Z,0
2016-12-17T01:10:33.359Z,0
2016-12-17T01:11:33.700Z,0
2016-12-17T01:12:33.412Z,0
2016-12-17T01:13:34.089Z,0
2016-12-17T01:14:33.174Z,0
2016-12-17T01:15:33.502Z,0
2016-12-17T01:16:33.211Z,0
2016-12-17T01:17:33.244Z,0
2016-12-17T01:18:33.576Z,0
2016-12-17T01:19:33.605Z,0
2016-12-17T01:20:33.333Z,0
2016-12-17T01:21:33.658Z,0
2016-12-17T01:22:33.715Z,0
2016-12-17T01:23:34.020Z,0
2016-12-17T01:24:33.779Z,0
2016-12-17T01:25:34.081Z,0
2016-12-17T01:26:33.493Z,0
2016-12-17T01:27:34.442Z,0
2016-12-17T01:28:33.547Z,0
2016-12-17T01:29:34.511Z,0
2016-12-17T01:30:34.208Z,0
2016-12-17T01:31:33.933Z,0
2016-12-17T01:32:33.958Z,0
2016-12-17T01:33:34.010Z,0
2016-12-17T01:34:33.716Z,0
2016-12-17T01:35:34.356Z,0
2016-12-17T01:36:34.088Z,0
2016-12-17T01:37:34.112Z,0
2016-12-17T01:38:34.427Z,0
2016-12-17T01:39:34.449Z,0
2016-12-17T01:40:34.483Z,0
2016-12-17T01:41:33.903Z,0
2016-12-17T01:42:34.540Z,0
2016-12-17T01:43:34.565Z,0
2016-12-17T01:44:34.582Z,0
2016-12-17T01:45:34.333Z,0
2016-12-17T01:46:34.343Z,0
2016-12-17T01:47:34.371Z,0
2016-12-17T01:48:34.404Z,0
2016-12-17T01:49:34.429Z,0
2016-12-17T01:50:34.450Z,0
2016-12-17T01:51:35.094Z,0
2016-12-17T01:52:34.203Z,0
2016-12-17T01:53:34.534Z,0
2016-12-17T01:54:34.876Z,0
2016-12-17T01:55:34.587Z,0
2016-12-17T01:56:34.617Z,0
2016-12-17T01:57:34.651Z,0
2016-12-17T01:58:34.665Z,0
2016-12-17T01:59:35.000Z,0
2016-12-17T02:00:34.425Z,0
2016-12-17T02:01:35.054Z,0
2016-12-17T02:02:34.778Z,0
2016-12-17T02:03:34.803Z,0
2016-12-17T02:04:35.139Z,0
2016-12-17T02:05:34.558Z,0
2016-12-17T02:06:34.885Z,0
2016-12-17T02:07:34.921Z,0
2016-12-17T02:08:35.254Z,0
2016-12-17T02:09:34.963Z,0
2016-12-17T02:10:35.008Z,0
2016-12-17T02:11:35.034Z,0
2016-12-17T02:12:35.393Z,0
2016-12-17T02:13:35.394Z,0
2016-12-17T02:14:35.400Z,0
2016-12-17T02:15:35.443Z,0
2016-12-17T02:16:34.856Z,0
2016-12-17T02:17:35.189Z,0
2016-12-17T02:18:35.222Z,0
2016-12-17T02:19:35.248Z,0
2016-12-17T02:20:34.963Z,0
2016-12-17T02:21:35.604Z,0
2016-12-17T02:22:35.633Z,0
2016-12-17T02:23:35.654Z,0
2016-12-17T02:24:35.381Z,0
2016-12-17T02:25:35.115Z,0
2016-12-17T02:26:35.423Z,0
2016-12-17T02:27:35.744Z,0
2016-12-17T02:28:35.791Z,0
2016-12-17T02:29:35.206Z,0
2016-12-17T02:30:36.147Z,0
2016-12-17T02:31:36.183Z,0
2016-12-17T02:32:35.903Z,0
2016-12-17T02:33:35.944Z,0
2016-12-17T02:34:35.952Z,0
2016-12-17T02:35:35.993Z,0
2016-12-17T02:36:35.698Z,0
2016-12-17T02:37:36.035Z,0
2016-12-17T02:38:36.359Z,0
2016-12-17T02:39:35.475Z,0
2016-12-17T02:40:35.801Z,0
2016-12-17T02:41:36.165Z,0
2016-12-17T02:42:35.878Z,0
2016-12-17T02:43:36.203Z,0
2016-12-17T02:44:35.920Z,0
2016-12-17T02:45:35.959Z,0
2016-12-17T02:46:36.593Z,0
2016-12-17T02:47:36.305Z,0
2016-12-17T02:48:36.022Z,0
2016-12-17T02:49:36.047Z,0
2016-12-17T02:50:36.072Z,0
2016-12-17T02:51:36.120Z,0
2016-12-17T02:52:36.433Z,0
2016-12-17T02:53:36.194Z,0
2016-12-17T02:54:36.196Z,0
2016-12-17T02:55:36.235Z,0
2016-12-17T02:56:36.548Z,0
2016-12-17T02:57:36.293Z,0
2016-12-17T02:58:36.302Z,0
2016-12-17T02:59:36.326Z,0
2016-12-17T03:00:36.947Z,0
2016-12-17T03:01:36.395Z,0
2016-12-17T03:02:36.109Z,0
2016-12-17T03:03:36.429Z,0
2016-12-17T03:04:36.165Z,0
2016-12-17T03:05:36.178Z,0
2016-12-17T03:06:36.831Z,0
2016-12-17T03:07:36.540Z,0
2016-12-17T03:08:36.869Z,0
2016-12-17T03:09:36.601Z,0
2016-12-17T03:10:36.925Z,0
2016-12-17T03:11:36.946Z,0
2016-12-17T03:12:36.688Z,0
2016-12-17T03:13:36.708Z,0
2016-12-17T03:14:36.738Z,0
2016-12-17T03:15:36.762Z,0
2016-12-17T03:16:37.098Z,0
2016-12-17T03:17:37.145Z,0
2016-12-17T03:18:36.844Z,0
2016-12-17T03:19:36.877Z,0
2016-12-17T03:20:36.893Z,0
2016-12-17T03:21:36.606Z,0
2016-12-17T03:22:36.959Z,0
2016-12-17T03:23:36.672Z,0
2016-12-17T03:24:37.004Z,0
2016-12-17T03:25:37.345Z,0
2016-12-17T03:26:37.402Z,0
2016-12-17T03:27:37.098Z,0
2016-12-17T03:28:37.420Z,0
2016-12-17T03:29:37.456Z,0
2016-12-17T03:30:37.484Z,0
2016-12-17T03:31:37.189Z,0
2016-12-17T03:32:37.222Z,0
2016-12-17T03:33:37.258Z,0
2016-12-17T03:34:37.272Z,0
2016-12-17T03:35:37.005Z,0
2016-12-17T03:36:37.318Z,0
2016-12-17T03:37:37.674Z,0
2016-12-17T03:38:37.075Z,0
2016-12-17T03:39:37.722Z,0
2016-12-17T03:40:37.746Z,0
2016-12-17T03:41:37.769Z,0
2016-12-17T03:42:37.798Z,0
2016-12-17T03:43:37.510Z,0
2016-12-17T03:44:37.540Z,0
2016-12-17T03:45:37.580Z,0
2016-12-17T03:46:37.905Z,0
2016-12-17T03:47:37.625Z,0
2016-12-17T03:48:37.659Z,0
2016-12-17T03:49:37.983Z,0
2016-12-17T03:50:38.020Z,0
2016-12-17T03:51:37.737Z,0
2016-12-17T03:52:38.061Z,0
2016-12-17T03:53:37.794Z,0
2016-12-17T03:54:37.811Z,0
2016-12-17T03:55:37.544Z,0
2016-12-17T03:56:37.876Z,0
2016-12-17T03:57:37.901Z,0
2016-12-17T03:58:37.630Z,0
2016-12-17T03:59:38.263Z,0
2016-12-17T04:00:37.685Z,0
2016-12-17T04:01:38.308Z,0
2016-12-17T04:02:38.337Z,0
2016-12-17T04:03:38.066Z,0
2016-12-17T04:04:38.727Z,0
2016-12-17T04:05:38.130Z,0
2016-12-17T04:06:38.436Z,0
2016-12-17T04:07:37.873Z,0
2016-12-17T04:08:38.505Z,0
2016-12-17T04:09:38.530Z,0
2016-12-17T04:10:38.864Z,0
2016-12-17T04:11:37.984Z,0
2016-12-17T04:12:38.622Z,0
2016-12-17T04:13:38.634Z,0
2016-12-17T04:14:38.046Z,0
2016-12-17T04:15:38.687Z,0
2016-12-17T04:16:38.716Z,0
2016-12-17T04:17:38.740Z,0
2016-12-17T04:18:38.165Z,0
2016-12-17T04:19:38.491Z,0
2016-12-17T04:20:38.831Z,0
2016-12-17T04:21:38.552Z,0
2016-12-17T04:22:39.188Z,0
2016-12-17T04:23:38.905Z,0
2016-12-17T04:24:38.630Z,0
2016-12-17T04:25:38.955Z,0
2016-12-17T04:26:38.711Z,0
2016-12-17T04:27:38.712Z,0
2016-12-17T04:28:38.437Z,0
2016-12-17T04:29:38.458Z,0
2016-12-17T04:30:38.802Z,0
2016-12-17T04:31:38.817Z,0
2016-12-17T04:32:39.141Z,0
2016-12-17T04:33:39.171Z,0
2016-12-17T04:34:39.202Z,0
2016-12-17T04:35:39.246Z,0
2016-12-17T04:36:38.958Z,0
2016-12-17T04:37:39.291Z,0
2016-12-17T04:38:39.000Z,0
2016-12-17T04:39:38.733Z,0
2016-12-17T04:40:39.358Z,0
2016-12-17T04:41:39.395Z,0
2016-12-17T04:42:39.123Z,0
2016-12-17T04:43:39.440Z,0
2016-12-17T04:44:39.177Z,0
2016-12-17T04:45:39.198Z,0
2016-12-17T04:46:39.517Z,0
2016-12-17T04:47:38.947Z,0
2016-12-17T04:48:39.264Z,0
2016-12-17T04:49:39.608Z,0
2016-12-17T04:50:39.330Z,0
2016-12-17T04:51:39.370Z,0
2016-12-17T04:52:39.387Z,0
2016-12-17T04:53:39.716Z,0
2016-12-17T04:54:39.780Z,0
2016-12-17T04:55:39.469Z,0
2016-12-17T04:56:39.786Z,0
2016-12-17T04:57:39.828Z,0
2016-12-17T04:58:39.855Z,0
2016-12-17T04:59:39.576Z,0
2016-12-17T05:00:40.205Z,0
2016-12-17T05:01:40.237Z,0
2016-12-17T05:02:39.951Z,0
2016-12-17T05:03:39.678Z,0
2016-12-17T05:04:40.008Z,0
2016-12-17T05:05:40.029Z,0
2016-12-17T05:06:40.382Z,0
2016-12-17T05:07:39.491Z,0
2016-12-17T05:08:40.422Z,0
2016-12-17T05:09:39.540Z,0
2016-12-17T05:10:39.568Z,0
2016-12-17T05:11:39.903Z,0
2016-12-17T05:12:40.230Z,0
2016-12-17T05:13:39.651Z,0
2016-12-17T05:14:39.668Z,0
2016-12-17T05:15:40.300Z,0
2016-12-17T05:16:40.337Z,0
2016-12-17T05:17:40.049Z,0
2016-12-17T05:18:40.386Z,0
2016-12-17T05:19:39.843Z,0
2016-12-17T05:20:39.839Z,0
2016-12-17T05:21:40.480Z,0
2016-12-17T05:22:40.194Z,0
2016-12-17T05:23:40.224Z,0
2016-12-17T05:24:40.555Z,0
2016-12-17T05:25:40.280Z,0
2016-12-17T05:26:40.297Z,0
2016-12-17T05:27:40.642Z,0
2016-12-17T05:28:40.338Z,0
2016-12-17T05:29:40.684Z,0
2016-12-17T05:30:40.997Z,0
2016-12-17T05:31:40.732Z,0
2016-12-17T05:32:40.757Z,0
2016-12-17T05:33:40.790Z,0
2016-12-17T05:34:40.831Z,0
2016-12-17T05:35:40.544Z,0
2016-12-17T05:36:40.272Z,0
2016-12-17T05:37:40.909Z,0
2016-12-17T05:38:40.620Z,0
2016-12-17T05:39:40.646Z,0
2016-12-17T05:40:40.980Z,0
2016-12-17T05:41:40.704Z,0
2016-12-17T05:42:40.740Z,0
2016-12-17T05:43:40.454Z,0
2016-12-17T05:44:41.103Z,0
2016-12-17T05:45:40.823Z,0
2016-12-17T05:46:40.836Z,0
2016-12-17T05:47:41.181Z,0
2016-12-17T05:48:40.900Z,0
2016-12-17T05:49:41.219Z,0
2016-12-17T05:50:41.543Z,0
2016-12-17T05:51:41.275Z,0
2016-12-17T05:52:41.001Z,0
2016-12-17T05:53:41.333Z,0
2016-12-17T05:54:40.753Z,0
2016-12-17T05:55:41.080Z,0
2016-12-17T05:56:41.111Z,0
2016-12-17T05:57:41.132Z,0
2016-12-17T05:58:41.469Z,0
2016-12-17T05:59:40.886Z,0
2016-12-17T06:00:41.513Z,0
2016-12-17T06:01:41.551Z,0
2016-12-17T06:02:41.268Z,0
2016-12-17T06:03:41.608Z,0
2016-12-17T06:04:41.005Z,0
2016-12-17T06:05:41.646Z,0
2016-12-17T06:06:41.987Z,0
2016-12-17T06:07:41.104Z,0
2016-12-17T06:08:41.425Z,0
2016-12-17T06:09:41.457Z,0
2016-12-17T06:10:42.097Z,0
2016-12-17T06:11:42.115Z,0
2016-12-17T06:12:41.541Z,0
2016-12-17T06:13:41.249Z,0
2016-12-17T06:14:41.284Z,0
2016-12-17T06:15:41.621Z,0
2016-12-17T06:16:41.950Z,0
2016-12-17T06:17:41.679Z,0
2016-12-17T06:18:41.704Z,0
2016-12-17T06:19:41.733Z,0
2016-12-17T06:20:41.757Z,0
2016-12-17T06:21:41.783Z,0
2016-12-17T06:22:41.511Z,0
2016-12-17T06:23:41.852Z,0
2016-12-17T06:24:42.473Z,0
2016-12-17T06:25:42.506Z,0
2016-12-17T06:26:41.918Z,0
2016-12-17T06:27:41.639Z,0
2016-12-17T06:28:41.977Z,0
2016-12-17T06:29:42.017Z,0
2016-12-17T06:30:42.033Z,0
2016-12-17T06:31:42.054Z,0
2016-12-17T06:32:41.779Z,0
2016-12-17T06:33:42.116Z,0
2016-12-17T06:34:41.832Z,0
2016-12-17T06:35:41.865Z,0
2016-12-17T06:36:42.488Z,0
2016-12-17T06:37:42.531Z,0
2016-12-17T06:38:42.240Z,0
2016-12-17T06:39:42.276Z,0
2016-12-17T06:40:42.297Z,0
2016-12-17T06:41:42.341Z,0
2016-12-17T06:42:42.359Z,0
2016-12-17T06:43:42.083Z,0
2016-12-17T06:44:42.404Z,0
2016-12-17T06:45:42.442Z,0
2016-12-17T06:46:42.768Z,0
2016-12-17T06:47:42.794Z,0
2016-12-17T06:48:43.127Z,0
2016-12-17T06:49:43.164Z,0
2016-12-17T06:50:42.589Z,0
2016-12-17T06:51:42.594Z,0
2016-12-17T06:52:42.630Z,0
2016-12-17T06:53:42.361Z,0
2016-12-17T06:54:42.676Z,0
2016-12-17T06:55:42.708Z,0
2016-12-17T06:56:43.077Z,0
2016-12-17T06:57:43.066Z,0
2016-12-17T06:58:43.436Z,0
2016-12-17T06:59:43.424Z,0
2016-12-17T07:00:42.856Z,4
2016-12-17T07:01:43.173Z,4
2016-12-17T07:02:43.206Z,4
2016-12-17T07:03:43.540Z,0
2016-12-17T07:04:43.247Z,4
2016-12-17T07:05:42.972Z,4
2016-12-17T07:06:42.696Z,4
2016-12-17T07:07:43.026Z,4
2016-12-17T07:08:42.759Z,4
2016-12-17T07:09:43.095Z,8
2016-12-17T07:10:43.416Z,4
2016-12-17T07:11:43.154Z,8
2016-12-17T07:12:43.781Z,8
2016-12-17T07:13:43.195Z,12
2016-12-17T07:14:43.531Z,12
2016-12-17T07:15:43.868Z,16
2016-12-17T07:16:43.272Z,16
2016-12-17T07:17:43.921Z,16
2016-12-17T07:18:43.634Z,20
2016-12-17T07:19:43.358Z,20
2016-12-17T07:20:43.388Z,24
2016-12-17T07:21:43.416Z,24
2016-12-17T07:22:43.745Z,32
2016-12-17T07:23:43.478Z,32
2016-12-17T07:24:43.199Z,36
2016-12-17T07:25:43.832Z,40
2016-12-17T07:26:43.860Z,44
2016-12-17T07:27:43.285Z,48
2016-12-17T07:28:43.901Z,52
2016-12-17T07:29:43.655Z,56
2016-12-17T07:30:43.650Z,60
2016-12-17T07:31:43.692Z,60
2016-12-17T07:32:44.017Z,64
2016-12-17T07:33:43.750Z,64
2016-12-17T07:34:43.454Z,68
2016-12-17T07:35:43.499Z,72
2016-12-17T07:36:43.816Z,76
2016-12-17T07:37:43.861Z,84
2016-12-17T07:38:43.869Z,84
2016-12-17T07:39:43.916Z,92
2016-12-17T07:40:44.535Z,96
2016-12-17T07:41:44.272Z,100
2016-12-17T07:42:43.984Z,104
2016-12-17T07:43:44.301Z,112
2016-12-17T07:44:44.066Z,112
2016-12-17T07:45:44.067Z,112
2016-12-17T07:46:44.096Z,112
2016-12-17T07:47:43.836Z,112
2016-12-17T07:48:44.445Z,116
2016-12-17T07:49:44.482Z,120
2016-12-17T07:50:44.203Z,128
2016-12-17T07:51:44.839Z,132
2016-12-17T07:52:44.865Z,132
2016-12-17T07:53:44.289Z,140
2016-12-17T07:54:44.626Z,144
2016-12-17T07:55:44.630Z,148
2016-12-17T07:56:44.059Z,156
2016-12-17T07:57:45.012Z,160
2016-12-17T07:58:44.105Z,164
2016-12-17T07:59:44.456Z,176
2016-12-17T08:00:44.463Z,176
2016-12-17T08:01:44.207Z,180
2016-12-17T08:02:45.132Z,184
2016-12-17T08:03:44.561Z,192
2016-12-17T08:04:44.889Z,188
2016-12-17T08:05:44.922Z,196
2016-12-17T08:06:44.343Z,200
2016-12-17T08:07:44.682Z,212
2016-12-17T08:08:44.689Z,216
2016-12-17T08:09:44.716Z,220
2016-12-17T08:10:44.445Z,228
2016-12-17T08:11:45.386Z,236
2016-12-17T08:12:45.111Z,232
2016-12-17T08:13:44.844Z,224
2016-12-17T08:14:44.533Z,212
2016-12-17T08:15:45.166Z,200
2016-12-17T08:16:45.198Z,196
2016-12-17T08:17:45.243Z,192
2016-12-17T08:18:45.539Z,192
2016-12-17T08:19:45.290Z,200
2016-12-17T08:20:45.030Z,212
2016-12-17T08:21:45.339Z,224
2016-12-17T08:22:45.048Z,244
2016-12-17T08:23:45.728Z,256
2016-12-17T08:24:45.418Z,260
2016-12-17T08:25:45.438Z,264
2016-12-17T08:26:45.763Z,264
2016-12-17T08:27:45.535Z,272
2016-12-17T08:28:45.835Z,276
2016-12-17T08:29:45.288Z,280
2016-12-17T08:30:45.585Z,284
2016-12-17T08:31:45.310Z,288
2016-12-17T08:32:45.619Z,296
2016-12-17T08:33:45.759Z,304
2016-12-17T08:34:45.986Z,312
2016-12-17T08:35:45.719Z,316
2016-12-17T08:36:45.442Z,324
2016-12-17T08:37:46.064Z,332
2016-12-17T08:38:45.528Z,340
2016-12-17T08:39:45.519Z,352
2016-12-17T08:40:45.550Z,360
2016-12-17T08:41:45.877Z,372
2016-12-17T08:42:45.614Z,384
2016-12-17T08:43:45.665Z,400
2016-12-17T08:44:45.651Z,408
2016-12-17T08:45:45.727Z,416
2016-12-17T08:46:45.715Z,412
2016-12-17T08:47:46.343Z,424
2016-12-17T08:48:45.763Z,436
2016-12-17T08:49:46.102Z,448
2016-12-17T08:50:45.831Z,456
2016-12-17T08:51:46.155Z,468
2016-12-17T08:52:45.871Z,480
2016-12-17T08:53:45.909Z,492
2016-12-17T08:54:45.939Z,500
2016-12-17T08:55:46.576Z,512
2016-12-17T08:56:46.593Z,516
2016-12-17T08:57:46.015Z,524
2016-12-17T08:58:46.051Z,544
2016-12-17T08:59:45.776Z,576
2016-12-17T09:00:46.389Z,576
2016-12-17T09:01:46.457Z,580
2016-12-17T09:02:46.147Z,600
2016-12-17T09:03:46.174Z,616
2016-12-17T09:04:45.894Z,620
2016-12-17T09:05:46.825Z,620
2016-12-17T09:06:45.969Z,628
2016-12-17T09:07:46.021Z,648
2016-12-17T09:08:46.679Z,656
2016-12-17T09:09:46.979Z,660
2016-12-17T09:10:46.395Z,672
2016-12-17T09:11:47.028Z,696
2016-12-17T09:12:46.755Z,720
2016-12-17T09:13:47.134Z,740
2016-12-17T09:14:47.110Z,756
2016-12-17T09:15:46.530Z,776
2016-12-17T09:16:46.556Z,792
2016-12-17T09:17:46.611Z,812
2016-12-17T09:18:46.617Z,828
2016-12-17T09:19:46.956Z,828
2016-12-17T09:20:46.687Z,840
2016-12-17T09:21:46.691Z,832
2016-12-17T09:22:46.412Z,816
2016-12-17T09:23:47.105Z,816
2016-12-17T09:24:46.782Z,812
2016-12-17T09:25:47.139Z,804
2016-12-17T09:26:46.828Z,804
2016-12-17T09:27:46.835Z,808
2016-12-17T09:28:46.881Z,800
2016-12-17T09:29:46.902Z,784
2016-12-17T09:30:46.919Z,764
2016-12-17T09:31:46.942Z,744
2016-12-17T09:32:46.675Z,752
2016-12-17T09:33:46.699Z,764
2016-12-17T09:34:47.326Z,784
2016-12-17T09:35:47.095Z,804
2016-12-17T09:36:47.387Z,812
2016-12-17T09:37:47.103Z,820
2016-12-17T09:38:47.129Z,820
2016-12-17T09:39:47.497Z,792
2016-12-17T09:40:47.502Z,772
2016-12-17T09:41:47.228Z,768
2016-12-17T09:42:47.551Z,764
2016-12-17T09:43:47.305Z,760
2016-12-17T09:44:47.591Z,764
2016-12-17T09:45:47.944Z,760
2016-12-17T09:46:47.354Z,760
2016-12-17T09:47:47.382Z,772
2016-12-17T09:48:47.412Z,780
2016-12-17T09:49:47.433Z,796
2016-12-17T09:50:47.769Z,820
2016-12-17T09:51:47.800Z,836
2016-12-17T09:52:47.829Z,824
2016-12-17T09:53:47.553Z,816
2016-12-17T09:54:47.277Z,816
2016-12-17T09:55:48.242Z,816
2016-12-17T09:56:47.629Z,828
2016-12-17T09:57:47.971Z,816
2016-12-17T09:58:47.677Z,780
2016-12-17T09:59:48.011Z,736
2016-12-17T10:00:48.029Z,712
2016-12-17T10:01:47.772Z,704
2016-12-17T10:02:48.120Z,704
2016-12-17T10:03:48.118Z,724
2016-12-17T10:04:47.541Z,748
2016-12-17T10:05:48.182Z,776
2016-12-17T10:06:48.503Z,796
2016-12-17T10:07:47.927Z,816
2016-12-17T10:08:48.260Z,840
2016-12-17T10:09:47.694Z,868
2016-12-17T10:10:48.306Z,868
2016-12-17T10:11:48.339Z,860
2016-12-17T10:12:47.752Z,868
2016-12-17T10:13:48.389Z,880
2016-12-17T10:14:48.413Z,880
2016-12-17T10:15:48.146Z,924
2016-12-17T10:16:48.172Z,976
2016-12-17T10:17:48.200Z,1004
2016-12-17T10:18:48.864Z,1000
2016-12-17T10:19:48.268Z,1000
2016-12-17T10:20:48.623Z,1020
2016-12-17T10:21:48.653Z,1036
2016-12-17T10:22:48.366Z,1040
2016-12-17T10:23:48.084Z,1044
2016-12-17T10:24:48.416Z,1056
2016-12-17T10:25:48.765Z,1120
2016-12-17T10:26:49.069Z,1196
2016-12-17T10:27:48.825Z,1188
2016-12-17T10:28:48.535Z,1172
2016-12-17T10:29:48.864Z,1232
2016-12-17T10:30:48.889Z,1316
2016-12-17T10:31:48.613Z,1352
2016-12-17T10:32:48.943Z,1344
2016-12-17T10:33:48.983Z,1372
2016-12-17T10:34:48.691Z,1428
2016-12-17T10:35:48.740Z,1396
2016-12-17T10:36:48.757Z,1272
2016-12-17T10:37:48.781Z,1240
2016-12-17T10:38:48.535Z,1296
2016-12-17T10:39:48.841Z,1316
2016-12-17T10:40:48.868Z,1320
2016-12-17T10:41:48.890Z,1360
2016-12-17T10:42:49.526Z,1360
2016-12-17T10:43:49.558Z,1324
2016-12-17T10:44:48.950Z,1332
2016-12-17T10:45:48.983Z,1372
2016-12-17T10:46:49.021Z,1276
2016-12-17T10:47:49.043Z,1196
2016-12-17T10:48:49.086Z,1224
2016-12-17T10:49:49.106Z,1248
2016-12-17T10:50:49.143Z,1244
2016-12-17T10:51:49.146Z,1240
2016-12-17T10:52:48.885Z,1268
2016-12-17T10:53:49.818Z,1372
2016-12-17T10:54:49.248Z,1472
2016-12-17T10:55:49.572Z,1620
2016-12-17T10:56:49.291Z,1636
2016-12-17T10:57:49.941Z,1516
2016-12-17T10:58:49.657Z,1528
2016-12-17T10:59:49.687Z,1572
2016-12-17T11:00:50.007Z,1536
2016-12-17T11:01:49.732Z,1428
2016-12-17T11:02:49.448Z,1436
2016-12-17T11:03:50.121Z,1480
2016-12-17T11:04:49.814Z,1464
2016-12-17T11:05:49.841Z,1440
2016-12-17T11:06:49.559Z,1416
2016-12-17T11:07:50.203Z,1384
2016-12-17T11:08:49.917Z,1376
2016-12-17T11:09:49.353Z,1456
2016-12-17T11:10:50.278Z,1564
2016-12-17T11:11:50.319Z,1600
2016-12-17T11:12:49.436Z,1596
2016-12-17T11:13:49.752Z,1672
2016-12-17T11:14:49.514Z,1748
2016-12-17T11:15:49.826Z,1724
2016-12-17T11:16:50.148Z,1708
2016-12-17T11:17:50.171Z,1792
2016-12-17T11:18:50.195Z,1888
2016-12-17T11:19:49.616Z,1892
2016-12-17T11:20:49.937Z,1844
2016-12-17T11:21:49.971Z,1820
2016-12-17T11:22:50.307Z,1824
2016-12-17T11:23:50.344Z,1808
2016-12-17T11:24:50.056Z,1824
2016-12-17T11:25:49.779Z,1848
2016-12-17T11:26:50.106Z,1896
2016-12-17T11:27:50.438Z,1844
2016-12-17T11:28:49.851Z,1924
2016-12-17T11:29:50.196Z,2064
2016-12-17T11:30:50.817Z,2156
2016-12-17T11:31:50.254Z,2112
2016-12-17T11:32:49.974Z,2176
2016-12-17T11:33:50.607Z,2248
2016-12-17T11:34:50.644Z,2164
2016-12-17T11:35:50.661Z,2116
2016-12-17T11:36:50.380Z,2112
2016-12-17T11:37:51.010Z,2012
2016-12-17T11:38:50.735Z,1960
2016-12-17T11:39:50.767Z,1840
2016-12-17T11:40:50.784Z,1696
2016-12-17T11:41:50.205Z,1568
2016-12-17T11:42:50.534Z,1492
2016-12-17T11:43:50.878Z,1468
2016-12-17T11:44:50.603Z,1536
2016-12-17T11:45:50.632Z,1712
2016-12-17T11:46:50.653Z,1904
2016-12-17T11:47:50.997Z,2204
2016-12-17T11:48:50.398Z,2452
2016-12-17T11:49:50.740Z,2548
2016-12-17T11:50:50.759Z,2680
2016-12-17T11:51:50.496Z,2760
2016-12-17T11:52:51.110Z,2800
2016-12-17T11:53:50.935Z,2852
2016-12-17T11:54:50.874Z,2888
2016-12-17T11:55:51.214Z,2908
2016-12-17T11:56:50.921Z,2912
2016-12-17T11:57:51.265Z,2960
2016-12-17T11:58:51.590Z,3020
2016-12-17T11:59:51.027Z,3068
2016-12-17T12:00:51.335Z,3084
2016-12-17T12:01:51.372Z,3076
2016-12-17T12:02:51.388Z,3048
2016-12-17T12:03:51.117Z,3044
2016-12-17T12:04:51.134Z,3024
2016-12-17T12:05:51.163Z,3432
2016-12-17T12:06:50.895Z,2880
2016-12-17T12:07:51.220Z,2700
2016-12-17T12:08:50.965Z,2532
2016-12-17T12:09:50.990Z,2508
2016-12-17T12:10:51.302Z,2492
2016-12-17T12:11:51.951Z,2320
2016-12-17T12:12:51.655Z,2188
2016-12-17T12:13:52.004Z,2096
2016-12-17T12:14:51.721Z,2124
2016-12-17T12:15:51.770Z,2344
2016-12-17T12:16:51.179Z,2528
2016-12-17T12:17:51.807Z,2592
2016-12-17T12:18:52.136Z,2704
2016-12-17T12:19:51.857Z,2820
2016-12-17T12:20:52.189Z,2804
2016-12-17T12:21:51.620Z,2600
2016-12-17T12:22:51.626Z,2612
2016-12-17T12:23:51.967Z,2628
2016-12-17T12:24:51.992Z,2564
2016-12-17T12:25:51.729Z,2380
2016-12-17T12:26:52.054Z,2380
2016-12-17T12:27:52.402Z,2564
2016-12-17T12:28:52.098Z,2796
2016-12-17T12:29:52.468Z,2996
2016-12-17T12:30:51.571Z,2744
2016-12-17T12:31:52.192Z,2716
2016-12-17T12:32:51.909Z,2684
2016-12-17T12:33:51.918Z,2588
2016-12-17T12:34:51.961Z,2604
2016-12-17T12:35:51.692Z,2700
2016-12-17T12:36:51.725Z,2840
2016-12-17T12:37:51.741Z,2948
2016-12-17T12:38:51.772Z,2952
2016-12-17T12:39:52.107Z,2876
2016-12-17T12:40:51.827Z,2756
2016-12-17T12:41:52.164Z,2404
2016-12-17T12:42:52.489Z,1940
2016-12-17T12:43:51.897Z,1688
2016-12-17T12:44:52.246Z,1768
2016-12-17T12:45:52.583Z,2008
2016-12-17T12:46:52.598Z,2196
2016-12-17T12:47:52.633Z,2220
2016-12-17T12:48:52.949Z,2012
2016-12-17T12:49:52.378Z,1876
2016-12-17T12:50:52.415Z,1992
2016-12-17T12:51:52.743Z,2120
2016-12-17T12:52:52.460Z,2392
2016-12-17T12:53:52.488Z,2836
2016-12-17T12:54:52.821Z,3176
2016-12-17T12:55:52.857Z,3288
2016-12-17T12:56:52.570Z,3292
2016-12-17T12:57:52.599Z,3536
2016-12-17T12:58:52.616Z,3468
2016-12-17T12:59:52.969Z,3328
2016-12-17T13:00:53.285Z,3128
2016-12-17T13:01:53.006Z,2836
2016-12-17T13:02:53.342Z,2628
2016-12-17T13:03:53.363Z,2572
2016-12-17T13:04:52.476Z,2600
2016-12-17T13:05:52.516Z,2712
2016-12-17T13:06:52.829Z,2856
2016-12-17T13:07:52.874Z,2868
2016-12-17T13:08:52.895Z,2540
2016-12-17T13:09:53.244Z,2108
2016-12-17T13:10:52.948Z,1628
2016-12-17T13:11:53.289Z,1308
2016-12-17T13:12:53.618Z,1088
2016-12-17T13:13:53.327Z,936
2016-12-17T13:14:53.068Z,852
2016-12-17T13:15:53.396Z,852
2016-12-17T13:16:53.121Z,908
2016-12-17T13:17:52.847Z,980
2016-12-17T13:18:53.479Z,1068
2016-12-17T13:19:53.507Z,1220
2016-12-17T13:20:53.532Z,1456
2016-12-17T13:21:53.556Z,1724
2016-12-17T13:22:53.280Z,2000
2016-12-17T13:23:53.310Z,2348
2016-12-17T13:24:53.938Z,2716
2016-12-17T13:25:53.660Z,2844
2016-12-17T13:26:53.380Z,2856
2016-12-17T13:27:53.428Z,2788
2016-12-17T13:28:53.749Z,2764
2016-12-17T13:29:53.174Z,2760
2016-12-17T13:30:53.799Z,2692
2016-12-17T13:31:53.840Z,2600
2016-12-17T13:32:53.550Z,2452
2016-12-17T13:33:53.893Z,2312
2016-12-17T13:34:53.602Z,2172
2016-12-17T13:35:53.646Z,2084
2016-12-17T13:36:53.968Z,2000
2016-12-17T13:37:53.382Z,2084
2016-12-17T13:38:53.717Z,2240
2016-12-17T13:39:53.762Z,2424
2016-12-17T13:40:54.074Z,2464
2016-12-17T13:41:53.812Z,2352
2016-12-17T13:42:53.826Z,2044
2016-12-17T13:43:53.550Z,1760
2016-12-17T13:44:54.185Z,1544
2016-12-17T13:45:54.206Z,1480
2016-12-17T13:46:53.934Z,1464
2016-12-17T13:47:54.258Z,1432
2016-12-17T13:48:53.683Z,1408
2016-12-17T13:49:53.712Z,1288
2016-12-17T13:50:54.042Z,1148
2016-12-17T13:51:54.074Z,1052
2016-12-17T13:52:54.410Z,1048
2016-12-17T13:53:53.835Z,1100
2016-12-17T13:54:54.760Z,1092
2016-12-17T13:55:54.490Z,988
2016-12-17T13:56:54.201Z,904
2016-12-17T13:57:54.850Z,884
2016-12-17T13:58:53.955Z,880
2016-12-17T13:59:53.984Z,844
2016-12-17T14:00:54.349Z,804
2016-12-17T14:01:54.057Z,796
2016-12-17T14:02:54.674Z,820
2016-12-17T14:03:54.407Z,888
2016-12-17T14:04:54.460Z,996
2016-12-17T14:05:55.068Z,1084
2016-12-17T14:06:55.089Z,1136
2016-12-17T14:07:54.510Z,1164
2016-12-17T14:08:54.230Z,1244
2016-12-17T14:09:54.559Z,1284